Time;durP1;ratioP1;P1;durP2;ratioP2;P2;SDS_P1;SDS_P2;PMS_P1;PMS_P2;Temp;Humidity;BMP_temperature;BMP_pressure;BME280_temperature;BME280_humidity;BME280_pressure;Samples;Min_cycle;Max_cycle;Signal;HPM_P1;HPM_P2
2022/09/27 00:01:40;;;;;;;6.95;1.90;;;;;;;;;;5017364;28;20045;-81
2022/09/27 00:04:05;;;;;;;8.07;2.60;;;;;;;9.70;100.00;67846.56;5023000;28;20179;-81
2022/09/27 00:06:31;;;;;;;7.82;2.83;;;;;;;9.68;100.00;67844.28;5020843;28;20481;-79
2022/09/27 00:08:57;;;;;;;5.38;2.15;;;;;;;;;;5020718;28;20708;-81
2022/09/27 00:11:22;;;;;;;8.32;2.30;;;;;;;;;;5019636;28;20061;-80
2022/09/27 00:13:48;;;;;;;10.02;2.97;;;;;;;9.74;100.00;67850.53;5023088;28;20053;-81
2022/09/27 00:16:13;;;;;;;9.77;2.15;;;;;;;9.71;100.00;67847.13;5022115;28;20048;-78
2022/09/27 00:18:39;;;;;;;8.52;2.50;;;;;;;9.69;100.00;67844.84;5022382;28;20539;-82
2022/09/27 00:21:06;;;;;;;7.35;2.45;;;;;;;9.70;100.00;67851.88;5022761;28;20045;-81
2022/09/27 00:23:32;;;;;;;11.68;3.20;;;;;;;;;;5024370;28;20037;-80
2022/09/27 00:25:58;;;;;;;5.03;2.17;;;;;;;9.66;100.00;67846.78;5024960;28;20098;-81
2022/09/27 00:28:24;;;;;;;8.93;2.83;;;;;;;;;;5017987;28;20239;-81
2022/09/27 00:30:49;;;;;;;7.78;2.83;;;;;;;;;;5024121;28;20420;-80
2022/09/27 00:33:15;;;;;;;10.57;3.28;;;;;;;9.66;100.00;67839.38;5016415;28;20104;-80
2022/09/27 00:35:40;;;;;;;11.18;2.67;;;;;;;9.65;100.00;67846.22;5023071;28;20048;-78
2022/09/27 00:38:05;;;;;;;11.75;2.95;;;;;;;;;;5023228;28;20045;-80
2022/09/27 00:40:31;;;;;;;9.15;2.65;;;;;;;9.65;100.00;67840.34;5019656;28;20042;-79
2022/09/27 00:42:57;;;;;;;8.27;2.42;;;;;;;9.63;100.00;67843.94;5022781;28;20052;-80
2022/09/27 00:45:22;;;;;;;9.50;2.67;;;;;;;;;;5023683;28;20131;-80
2022/09/27 00:47:56;;;;;;;8.85;2.60;;;;;;;9.58;100.00;67832.38;5034654;28;20045;-77
2022/09/27 00:50:41;;;;;;;12.95;2.85;;;;;;;9.60;100.00;67839.97;5042322;28;20049;-80
2022/09/27 00:53:32;;;;;;;6.63;2.00;;;;;;;9.59;100.00;67839.41;5042789;28;20500;-79
2022/09/27 00:56:08;;;;;;;12.23;2.80;;;;;;;9.57;100.00;67836.56;5038223;28;20045;-80
2022/09/27 00:58:42;;;;;;;10.68;2.25;;;;;;;9.56;100.00;67835.44;5013267;28;20041;-82
2022/09/27 01:01:09;;;;;;;8.85;1.80;;;;;;;;;;5035696;28;20092;-81
2022/09/27 01:03:34;;;;;;;5.40;1.83;;;;;;;;;;5020143;28;20061;-78
2022/09/27 01:06:00;;;;;;;10.02;2.25;;;;;;;9.54;100.00;67828.44;5024220;28;20080;-79
2022/09/27 01:08:25;;;;;;;6.90;2.17;;;;;;;9.54;100.00;67828.44;5020329;28;20045;-78
2022/09/27 01:11:03;;;;;;;4.03;1.38;;;;;;;9.54;100.00;67828.44;5034531;28;20055;-78
2022/09/27 01:13:37;;;;;;;8.27;2.40;;;;;;;;;;5056019;28;20089;-80
2022/09/27 01:16:24;;;;;;;6.45;2.40;;;;;;;9.54;100.00;67828.44;5056710;28;20072;-76
2022/09/27 01:19:00;;;;;;;10.35;2.72;;;;;;;9.55;100.00;67834.31;5022183;28;20037;-79
2022/09/27 01:21:59;;;;;;;6.10;2.30;;;;;;;9.55;100.00;67829.00;5021900;28;20048;-78
2022/09/27 01:24:52;;;;;;;8.00;2.38;;;;;;;9.52;100.00;67831.47;5030597;28;20049;-78
2022/09/27 01:27:20;;;;;;;6.78;2.67;;;;;;;9.51;100.00;67825.03;5033914;28;20080;-79
2022/09/27 01:29:58;;;;;;;6.63;2.77;;;;;;;9.49;100.00;67822.75;5030038;28;20053;-80
2022/09/27 01:32:36;;;;;;;8.73;3.08;;;;;;;9.49;100.00;67822.75;5040974;28;20071;-80
2022/09/27 01:35:04;;;;;;;8.85;2.50;;;;;;;9.52;100.00;67826.16;5034647;28;20064;-81
2022/09/27 01:37:37;;;;;;;7.75;3.10;;;;;;;9.47;100.00;67825.81;5040662;28;20045;-79
2022/09/27 01:40:19;;;;;;;7.95;2.80;;;;;;;;;;5067912;28;20055;-80
2022/09/27 01:42:54;;;;;;;7.32;2.53;;;;;;;9.45;100.00;67818.78;5040795;28;20037;-80
2022/09/27 01:45:48;;;;;;;7.20;2.30;;;;;;;9.46;100.00;67819.34;5041182;28;20128;-80
2022/09/27 01:48:30;;;;;;;7.63;3.00;;;;;;;9.44;100.00;67817.09;5035692;28;20042;-80
2022/09/27 01:51:06;;;;;;;5.50;2.42;;;;;;;9.43;100.00;67821.25;5019840;28;20057;-80
2022/09/27 01:53:38;;;;;;;8.40;2.38;;;;;;;9.41;100.00;67819.00;5023427;28;20057;-77
2022/09/27 01:56:09;;;;;;;9.63;2.42;;;;;;;9.41;100.00;67813.69;5041900;28;20052;-82
2022/09/27 01:59:05;;;;;;;7.78;3.00;;;;;;;9.41;100.00;67819.56;5025093;28;20036;-80
2022/09/27 02:01:34;;;;;;;9.13;2.80;;;;;;;9.38;100.00;67810.88;5026457;28;20057;-79
2022/09/27 02:04:01;;;;;;;7.90;2.75;;;;;;;9.37;100.00;67815.03;5033645;28;20048;-79
2022/09/27 02:06:33;;;;;;;9.48;3.40;;;;;;;9.37;100.00;67809.16;5034470;28;20041;-79
2022/09/27 02:09:01;;;;;;;7.95;3.08;;;;;;;9.37;100.00;67809.16;5041168;28;20122;-78
2022/09/27 02:11:27;;;;;;;6.82;2.97;;;;;;;;;;5019857;28;20041;-80
2022/09/27 02:13:52;;;;;;;9.18;2.90;;;;;;;;;;5022203;28;20403;-77
2022/09/27 02:16:36;;;;;;;7.65;2.75;;;;;;;;;;5022664;28;20044;-77
2022/09/27 02:19:21;;;;;;;5.65;2.53;;;;;;;9.22;100.00;67798.59;5029009;28;20532;-79
2022/09/27 02:21:50;;;;;;;4.43;1.92;;;;;;;;;;5027935;28;20056;-79
2022/09/27 02:24:21;;;;;;;9.57;2.70;;;;;;;9.21;100.00;67788.94;5041479;28;20049;-79
2022/09/27 02:26:50;;;;;;;6.22;2.78;;;;;;;;;;5046866;28;20454;-78
2022/09/27 02:29:17;;;;;;;6.55;1.98;;;;;;;;;;5045720;28;20473;-79
2022/09/27 02:31:43;;;;;;;10.48;2.10;;;;;;;9.09;100.00;67775.91;5044729;28;20052;-79
2022/09/27 02:34:18;;;;;;;5.63;2.30;;;;;;;9.09;100.00;67778.56;5044966;28;20412;-78
2022/09/27 02:36:43;;;;;;;10.27;2.13;;;;;;;;;;5046084;28;20037;-79
2022/09/27 02:39:09;;;;;;;9.48;2.53;;;;;;;9.02;100.00;67767.97;5046827;28;20040;-80
2022/09/27 02:41:35;;;;;;;9.98;2.40;;;;;;;9.01;100.00;67774.81;5046310;28;20044;-80
2022/09/27 02:44:07;;;;;;;5.60;1.73;;;;;;;8.98;100.00;67771.97;5046697;28;20048;-80
2022/09/27 02:47:11;;;;;;;6.47;2.47;;;;;;;8.93;100.00;67760.41;5044785;28;20099;-78
2022/09/27 02:49:43;;;;;;;6.45;1.90;;;;;;;;;;5042237;28;20053;-79
2022/09/27 02:52:27;;;;;;;5.57;2.25;;;;;;;8.84;100.00;67755.53;5046607;28;20048;-80
2022/09/27 02:55:33;;;;;;;6.97;1.90;;;;;;;8.82;100.00;67754.38;5044596;28;20102;-79
2022/09/27 02:58:10;;;;;;;5.22;2.20;;;;;;;;;;5041092;28;21074;-81
2022/09/27 03:00:40;;;;;;;5.40;1.90;;;;;;;;;;5044617;28;20045;-79
2022/09/27 03:03:19;;;;;;;8.02;1.70;;;;;;;8.73;100.00;67738.31;5045390;28;20076;-79
2022/09/27 03:05:47;;;;;;;5.82;2.08;;;;;;;;;;5042266;28;20043;-81
2022/09/27 03:08:13;;;;;;;7.73;2.23;;;;;;;;;;5044554;28;20063;-80
2022/09/27 03:10:38;;;;;;;6.57;2.22;;;;;;;;;;5043093;28;20056;-80
2022/09/27 03:13:04;;;;;;;4.70;1.50;;;;;;;8.64;100.00;67738.75;5043491;28;20049;-79
2022/09/27 03:15:30;;;;;;;10.75;1.98;;;;;;;8.64;100.00;67734.00;5042651;28;20056;-79
2022/09/27 03:17:56;;;;;;;6.18;2.22;;;;;;;8.59;100.00;67728.91;5046239;28;20123;-80
2022/09/27 03:20:22;;;;;;;5.15;2.13;;;;;;;8.58;100.00;67722.47;5041784;28;20618;-80
2022/09/27 03:22:47;;;;;;;8.65;1.98;;;;;;;8.54;100.00;67723.22;5044426;28;20481;-82
2022/09/27 03:25:13;;;;;;;5.97;1.60;;;;;;;8.52;100.00;67715.09;5043498;28;20052;-79
2022/09/27 03:27:38;;;;;;;4.75;1.45;;;;;;;8.50;100.00;67718.72;5037305;28;20037;-78
2022/09/27 03:30:05;;;;;;;3.65;1.20;;;;;;;;;;5037436;28;20041;-79
2022/09/27 03:32:30;;;;;;;3.38;1.63;;;;;;;;;;5040775;28;20054;-78
2022/09/27 03:34:56;;;;;;;4.68;1.38;;;;;;;8.40;100.00;67706.81;5038435;28;20044;-79
2022/09/27 03:37:22;;;;;;;3.67;1.42;;;;;;;8.39;100.00;67705.69;5031027;28;20041;-80
2022/09/27 03:39:47;;;;;;;6.30;1.00;;;;;;;;;;5015195;28;20148;-81
2022/09/27 03:42:12;;;;;;;4.47;1.30;;;;;;;8.34;100.00;67695.84;5018074;28;20558;-79
2022/09/27 03:44:37;;;;;;;3.45;1.02;;;;;;;;;;5020090;28;20085;-79
2022/09/27 03:47:03;;;;;;;6.25;1.33;;;;;;;;;;5029033;28;20049;-80
2022/09/27 03:49:28;;;;;;;3.72;1.35;;;;;;;8.25;100.00;67690.38;5040006;28;20075;-79
2022/09/27 03:51:54;;;;;;;4.45;1.33;;;;;;;;;;5044915;28;20138;-79
2022/09/27 03:54:19;;;;;;;2.85;1.40;;;;;;;8.23;100.00;67688.69;5048485;28;20056;-81
2022/09/27 03:56:45;;;;;;;5.35;1.70;;;;;;;;;;5047515;28;20567;-81
2022/09/27 03:59:10;;;;;;;5.32;1.77;;;;;;;8.20;100.00;67684.69;5046808;28;20045;-82
2022/09/27 04:01:37;;;;;;;4.97;1.67;;;;;;;8.17;100.00;67676.59;5047672;28;20072;-80
2022/09/27 04:04:02;;;;;;;4.45;1.70;;;;;;;;;;5049074;28;20109;-80
2022/09/27 04:06:28;;;;;;;5.25;1.52;;;;;;;;;;5050703;28;20060;-78
2022/09/27 04:08:53;;;;;;;5.25;1.73;;;;;;;;;;5049368;28;20269;-80
2022/09/27 04:11:19;;;;;;;6.57;1.67;;;;;;;8.22;100.00;67686.97;5051007;28;20110;-80
2022/09/27 04:13:45;;;;;;;6.00;1.70;;;;;;;8.23;100.00;67688.09;5061555;28;20049;-80
2022/09/27 04:16:10;;;;;;;6.47;2.15;;;;;;;8.21;100.00;67689.06;5042517;28;20551;-81
2022/09/27 04:18:36;;;;;;;7.50;2.80;;;;;;;8.22;100.00;67689.63;5042644;28;20037;-81
2022/09/27 04:21:02;;;;;;;8.88;3.10;;;;;;;8.22;100.00;67682.22;5037173;28;20033;-81
2022/09/27 04:23:27;;;;;;;5.05;2.58;;;;;;;8.25;100.00;67680.31;5045479;28;20045;-81
2022/09/27 04:25:53;;;;;;;8.90;3.42;;;;;;;8.26;100.00;67692.06;5047249;28;20040;-80
2022/09/27 04:28:18;;;;;;;7.53;2.97;;;;;;;8.26;100.00;67686.22;5039825;28;20049;-80
2022/09/27 04:30:45;;;;;;;8.50;2.60;;;;;;;8.28;100.00;67688.47;5037877;28;20037;-80
2022/09/27 04:33:10;;;;;;;7.00;3.22;;;;;;;8.27;100.00;67692.63;5041331;28;20067;-82
2022/09/27 04:38:22;;;;;;;7.82;2.88;;;;;;;8.28;100.00;67693.75;5035941;28;20071;-80
2022/09/27 04:40:49;;;;;;;8.90;2.80;;;;;;;;;;5046715;28;20036;-81
2022/09/27 04:43:15;;;;;;;9.23;2.63;;;;;;;8.27;100.00;67687.88;5042764;28;20079;-80
2022/09/27 04:45:41;;;;;;;8.43;2.80;;;;;;;;;;5024457;28;20106;-80
2022/09/27 04:48:07;;;;;;;7.10;2.13;;;;;;;;;;5021747;28;20049;-80
2022/09/27 04:50:32;;;;;;;6.13;2.70;;;;;;;;;;5020840;28;20026;-80
2022/09/27 04:52:57;;;;;;;7.90;2.40;;;;;;;8.28;100.00;67693.75;5022200;28;20070;-80
2022/09/27 04:55:23;;;;;;;8.75;2.78;;;;;;;8.29;100.00;67690.16;5032301;28;20642;-80
2022/09/27 04:57:49;;;;;;;5.60;2.83;;;;;;;8.29;100.00;67689.59;5033950;28;20101;-81
2022/09/27 05:00:15;;;;;;;5.55;2.00;;;;;;;8.27;100.00;67698.50;5026373;28;20731;-79
2022/09/27 05:02:43;;;;;;;6.80;2.58;;;;;;;8.32;100.00;67693.00;5021996;28;20052;-81
2022/09/27 05:05:09;;;;;;;9.43;2.70;;;;;;;8.32;100.00;67693.56;5050549;28;20511;-79
2022/09/27 05:07:38;;;;;;;7.63;2.47;;;;;;;;;;5014733;28;20045;-80
2022/09/27 05:10:04;;;;;;;4.85;2.33;;;;;;;8.29;100.00;67695.47;5051959;28;20037;-79
2022/09/27 05:12:29;;;;;;;9.00;2.33;;;;;;;8.29;100.00;67694.91;5028879;28;20053;-82
2022/09/27 05:14:55;;;;;;;12.50;2.83;;;;;;;;;;5026196;28;20157;-80
2022/09/27 05:17:21;;;;;;;11.02;2.88;;;;;;;;;;5026193;28;20046;-81
2022/09/27 05:19:46;;;;;;;10.20;2.88;;;;;;;;;;5032303;28;20072;-81
2022/09/27 05:22:12;;;;;;;9.70;2.42;;;;;;;8.29;100.00;67695.47;5031035;28;20079;-81
2022/09/27 05:24:38;;;;;;;7.43;2.45;;;;;;;8.27;100.00;67692.63;5048420;28;20049;-78
2022/09/27 05:27:05;;;;;;;8.07;2.30;;;;;;;;;;5024102;28;20045;-81
2022/09/27 05:29:31;;;;;;;7.43;2.45;;;;;;;;;;5022015;28;20049;-79
2022/09/27 05:31:56;;;;;;;9.00;2.20;;;;;;;8.31;100.00;67697.72;5025169;28;20453;-80
2022/09/27 05:34:21;;;;;;;7.75;2.58;;;;;;;8.32;100.00;67693.00;5024476;28;20513;-79
2022/09/27 05:36:47;;;;;;;7.75;2.80;;;;;;;8.35;100.00;67696.97;5024544;28;20107;-82
2022/09/27 05:39:15;;;;;;;7.53;2.15;;;;;;;8.32;100.00;67693.56;5045499;28;20246;-82
2022/09/27 05:41:41;;;;;;;9.05;2.28;;;;;;;8.33;100.00;67694.13;5031129;28;20044;-82
2022/09/27 05:44:06;;;;;;;13.45;2.70;;;;;;;;;;5029612;28;20041;-81
2022/09/27 05:46:35;;;;;;;8.43;2.90;;;;;;;8.29;100.00;67697.56;5019519;28;20037;-79
2022/09/27 05:49:00;;;;;;;7.90;3.10;;;;;;;8.26;100.00;67692.06;5019935;28;20041;-81
2022/09/27 05:51:26;;;;;;;7.25;2.72;;;;;;;8.27;100.00;67687.88;5021526;28;20058;-79
2022/09/27 05:53:51;;;;;;;9.95;2.72;;;;;;;8.25;100.00;67690.94;5021591;28;20052;-82
2022/09/27 05:56:16;;;;;;;8.15;2.85;;;;;;;;;;5023852;28;20258;-78
2022/09/27 05:58:42;;;;;;;13.82;3.03;;;;;;;8.27;100.00;67693.19;5023465;28;20072;-80
2022/09/27 06:01:08;;;;;;;8.07;2.17;;;;;;;8.24;100.00;67684.50;5023286;28;20038;-84
2022/09/27 06:03:34;;;;;;;7.75;2.85;;;;;;;8.21;100.00;67686.41;5024856;28;20489;-81
2022/09/27 06:06:06;;;;;;;7.35;3.47;;;;;;;8.22;100.00;67686.97;5028098;28;20064;-81
2022/09/27 06:08:34;;;;;;;9.52;2.78;;;;;;;8.19;100.00;67684.13;5017294;28;20407;-81
2022/09/27 06:11:04;;;;;;;7.78;3.50;;;;;;;8.18;100.00;67683.00;5021252;28;20052;-81
2022/09/27 06:13:29;;;;;;;10.35;3.60;;;;;;;8.17;100.00;67676.59;5019893;28;20029;-82
2022/09/27 06:15:55;;;;;;;11.10;3.58;;;;;;;8.16;100.00;67680.72;5021158;28;20493;-81
2022/09/27 06:18:20;;;;;;;10.52;3.33;;;;;;;8.16;100.00;67675.44;5021194;28;20048;-81
2022/09/27 06:20:46;;;;;;;13.10;3.30;;;;;;;8.17;100.00;67681.28;5021650;28;20037;-81
2022/09/27 06:23:20;;;;;;;7.57;2.63;;;;;;;8.14;100.00;67673.16;5017833;28;20398;-81
2022/09/27 06:25:46;;;;;;;11.85;3.90;;;;;;;8.14;100.00;67678.47;5022389;28;20241;-82
2022/09/27 06:28:12;;;;;;;9.93;4.07;;;;;;;;;;5018814;28;20045;-82
2022/09/27 06:30:40;;;;;;;10.98;3.90;;;;;;;8.20;100.00;67679.97;5020569;28;20052;-81
2022/09/27 06:33:05;;;;;;;15.00;2.95;;;;;;;8.25;100.00;67690.38;5022186;28;20641;-82
2022/09/27 06:35:30;;;;;;;10.05;3.65;;;;;;;8.29;100.00;67690.16;5020637;28;20060;-83
2022/09/27 06:37:56;;;;;;;9.93;2.83;;;;;;;;;;5022011;28;20045;-81
2022/09/27 06:40:25;;;;;;;10.15;2.30;;;;;;;;;;5023635;28;20049;-81
2022/09/27 06:42:51;;;;;;;;;;;;;;;8.45;100.00;67705.06;5021258;28;20096;-78
2022/09/27 06:45:16;;;;;;;12.30;3.55;;;;;;;;;;5019525;28;20381;-81
2022/09/27 06:47:41;;;;;;;9.43;3.25;;;;;;;8.47;100.00;67709.44;5018999;28;20077;-81
2022/09/27 06:50:07;;;;;;;10.57;2.80;;;;;;;8.51;100.00;67719.84;5021076;28;20136;-80
2022/09/27 06:52:33;;;;;;;7.53;3.22;;;;;;;;;;5018006;28;20057;-79
2022/09/27 06:54:59;;;;;;;10.05;3.38;;;;;;;8.57;100.00;67731.94;5022157;28;20077;-78
2022/09/27 07:00:22;;;;;;;8.18;2.70;;;;;;;8.63;100.00;67732.88;5029364;28;20416;-79
2022/09/27 07:02:48;;;;;;;11.52;2.78;;;;;;;;;;5036618;28;20037;-78
2022/09/27 07:05:14;;;;;;;7.70;2.70;;;;;;;;;;5041372;28;20178;-81
2022/09/27 07:07:39;;;;;;;9.13;2.83;;;;;;;;;;5039200;28;20123;-80
2022/09/27 07:10:05;;;;;;;5.85;2.22;;;;;;;8.70;100.00;67735.50;5039552;28;20485;-78
2022/09/27 07:12:31;;;;;;;8.48;3.40;;;;;;;8.75;100.00;67741.16;5038906;28;20060;-78
2022/09/27 07:14:56;;;;;;;7.82;2.08;;;;;;;;;;5039447;28;20101;-80
2022/09/27 07:17:22;;;;;;;11.70;3.05;;;;;;;8.80;100.00;67746.25;5040946;28;20052;-79
2022/09/27 07:19:47;;;;;;;7.20;2.25;;;;;;;8.77;100.00;67740.19;5040349;28;20044;-82
2022/09/27 07:22:13;;;;;;;9.38;2.20;;;;;;;;;;5042742;28;20044;-80
2022/09/27 07:24:38;;;;;;;9.98;2.70;;;;;;;8.86;100.00;67757.78;5055002;28;20635;-78
2022/09/27 07:27:03;;;;;;;9.15;2.33;;;;;;;8.88;100.00;67760.06;5041869;28;20045;-80
2022/09/27 07:29:29;;;;;;;9.38;2.88;;;;;;;8.91;100.00;67758.16;5043483;28;20137;-81
2022/09/27 07:31:54;;;;;;;9.05;3.00;;;;;;;8.99;100.00;67772.53;5043284;28;20029;-80
2022/09/27 07:34:20;;;;;;;7.85;2.95;;;;;;;;;;5043384;28;20124;-82
2022/09/27 07:36:45;;;;;;;5.95;2.10;;;;;;;8.99;100.00;67767.22;5042136;28;20064;-81
2022/09/27 07:39:10;;;;;;;7.50;2.90;;;;;;;9.09;100.00;67777.97;5043715;28;20047;-80
2022/09/27 07:41:38;;;;;;;9.50;2.70;;;;;;;9.17;100.00;67787.59;5041800;28;20049;-80
2022/09/27 07:44:06;;;;;;;5.70;2.55;;;;;;;9.16;100.00;67786.47;5044496;28;20045;-83
2022/09/27 07:46:32;;;;;;;7.78;3.30;;;;;;;9.22;100.00;67798.59;5044372;28;20094;-79
2022/09/27 07:48:58;;;;;;;8.07;3.38;;;;;;;9.32;100.00;67803.47;5043914;28;20544;-80
2022/09/27 07:51:23;;;;;;;5.75;2.67;;;;;;;;;;5043213;28;20148;-80
2022/09/27 07:53:49;;;;;;;7.32;3.13;;;;;;;;;;5043527;28;20037;-80
2022/09/27 07:56:14;;;;;;;9.25;3.33;;;;;;;;;;5042187;28;20044;-82
2022/09/27 07:58:39;;;;;;;6.72;2.83;;;;;;;9.35;100.00;67807.47;5044302;28;20037;-82
2022/09/27 08:01:06;;;;;;;5.72;2.88;;;;;;;;;;5043401;28;20484;-80
2022/09/27 08:03:31;;;;;;;9.70;2.85;;;;;;;;;;5045658;28;20199;-80
2022/09/27 08:05:56;;;;;;;4.85;2.58;;;;;;;9.34;100.00;67803.09;5044124;28;20549;-79
2022/09/27 08:08:23;;;;;;;7.00;3.03;;;;;;;9.29;100.00;67798.00;5041000;28;20041;-80
2022/09/27 08:10:48;;;;;;;7.82;2.83;;;;;;;;;;5043271;28;20515;-81
2022/09/27 08:13:16;;;;;;;6.68;3.30;;;;;;;;;;5038725;28;20069;-79
2022/09/27 08:15:42;;;;;;;5.40;2.13;;;;;;;9.30;100.00;67807.09;5024389;28;20045;-82
2022/09/27 08:18:08;;;;;;;4.55;3.08;;;;;;;;;;5023690;28;20123;-82
2022/09/27 08:20:34;;;;;;;7.72;2.83;;;;;;;9.31;100.00;67802.91;5040453;28;20051;-79
2022/09/27 08:22:59;;;;;;;6.93;2.55;;;;;;;;;;5044760;28;20132;-81
2022/09/27 08:25:24;;;;;;;6.75;3.25;;;;;;;9.36;100.00;67808.59;5044372;28;20045;-82
2022/09/27 08:27:56;;;;;;;6.60;3.15;;;;;;;;;;5044126;28;20485;-79
2022/09/27 08:30:22;;;;;;;7.20;2.50;;;;;;;9.43;100.00;67815.94;5046803;28;20544;-79
2022/09/27 08:32:48;;;;;;;5.65;2.00;;;;;;;9.44;100.00;67822.97;5042918;28;20050;-82
2022/09/27 08:35:14;;;;;;;4.28;2.70;;;;;;;9.47;100.00;67825.81;5041470;28;20044;-83
2022/09/27 08:37:40;;;;;;;6.97;2.20;;;;;;;9.52;100.00;67826.16;5033147;28;20038;-78
2022/09/27 08:40:06;;;;;;;5.68;2.50;;;;;;;9.49;100.00;67817.44;5044845;28;20068;-78
2022/09/27 08:43:09;;;;;;;5.47;1.80;;;;;;;9.49;100.00;67822.75;5025377;28;20068;-81
2022/09/27 08:45:38;;;;;;;5.22;2.28;;;;;;;;;;5019382;28;20139;-82
2022/09/27 08:48:04;;;;;;;3.70;1.60;;;;;;;;;;5020666;28;20738;-79
2022/09/27 08:50:40;;;;;;;4.50;1.70;;;;;;;9.57;100.00;67831.25;5026032;28;20045;-80
2022/09/27 08:53:21;;;;;;;5.38;2.15;;;;;;;9.69;100.00;67842.19;5036976;28;20442;-82
2022/09/27 08:55:50;;;;;;;4.43;1.90;;;;;;;9.71;100.00;67847.13;5037328;28;20052;-78
2022/09/27 08:58:20;;;;;;;5.10;2.00;;;;;;;9.72;100.00;67845.59;5037013;28;20536;-80
2022/09/27 09:00:50;;;;;;;4.47;2.15;;;;;;;9.68;100.00;67841.63;5037600;28;20037;-81
2022/09/27 09:03:20;;;;;;;4.43;2.22;;;;;;;9.71;100.00;67847.69;5039526;28;20033;-81
2022/09/27 09:06:00;;;;;;;4.90;2.33;;;;;;;9.71;100.00;67847.69;5038153;28;20143;-82
2022/09/27 09:08:31;;;;;;;7.97;2.60;;;;;;;;;;5038567;28;20436;-80
2022/09/27 09:14:20;;;;;;;3.83;2.70;;;;;;;9.79;100.00;67855.66;5039216;28;20056;-78
2022/09/27 09:17:13;;;;;;;4.78;2.50;;;;;;;9.78;100.00;67855.09;5035647;28;20056;-83
2022/09/27 09:19:42;;;;;;;3.17;1.88;;;;;;;;;;5037196;28;20148;-80
2022/09/27 09:22:07;;;;;;;4.70;2.80;;;;;;;;;;5038053;28;20041;-79
2022/09/27 09:24:57;;;;;;;5.57;2.40;;;;;;;9.90;100.00;67873.44;5039945;28;20045;-78
2022/09/27 09:27:47;;;;;;;5.07;2.95;;;;;;;9.98;100.00;67876.63;5024805;28;20057;-82
2022/09/27 09:30:20;;;;;;;3.75;2.28;;;;;;;;;;5061789;28;20041;-83
2022/09/27 09:33:10;;;;;;;4.80;2.00;;;;;;;9.92;100.00;67870.94;5041598;28;20053;-81
2022/09/27 09:35:46;;;;;;;4.55;1.90;;;;;;;;;;5039340;28;20044;-81
2022/09/27 09:38:19;;;;;;;5.90;2.20;;;;;;;;;;5037993;28;20131;-82
2022/09/27 09:40:49;;;;;;;4.72;2.40;;;;;;;10.00;100.00;67884.78;5041846;28;20036;-79
2022/09/27 09:43:32;;;;;;;4.97;2.00;;;;;;;10.06;100.00;67886.25;5043601;28;20118;-82
2022/09/27 09:46:06;;;;;;;3.78;2.22;;;;;;;10.10;100.00;67896.13;5045248;28;20100;-78
2022/09/27 09:48:50;;;;;;;3.53;2.20;;;;;;;10.15;100.00;67895.91;5041172;28;20512;-81
2022/09/27 09:51:21;;;;;;;3.53;1.90;;;;;;;10.20;100.00;67901.00;5023238;28;20427;-83
2022/09/27 09:53:56;;;;;;;5.80;2.10;;;;;;;10.27;100.00;67914.28;5040522;28;20120;-81
2022/09/27 09:56:35;;;;;;;4.32;2.10;;;;;;;10.32;100.00;67912.53;5043256;28;20500;-82
2022/09/27 09:59:03;;;;;;;;;;;;;;;;;;5056043;28;20045;-80
2022/09/27 10:01:54;;;;;;;4.47;2.28;;;;;;;10.29;100.00;67916.56;5055331;28;19920;-79
2022/09/27 10:04:23;;;;;;;3.92;1.60;;;;;;;10.24;100.00;67905.53;5054563;28;20045;-78
2022/09/27 10:06:50;;;;;;;3.28;1.08;;;;;;;10.17;100.00;67896.06;5053723;28;20033;-79
2022/09/27 10:09:20;;;;;;;3.30;1.00;;;;;;;10.14;100.00;67894.78;5057141;28;20041;-80
2022/09/27 10:11:46;;;;;;;5.22;1.27;;;;;;;;;;5047522;28;20143;-81
2022/09/27 10:14:14;;;;;;;3.38;1.17;;;;;;;10.20;100.00;67901.56;5037207;28;20155;-81
2022/09/27 10:16:45;;;;;;;3.42;1.00;;;;;;;;;;5037721;28;22546;-81
2022/09/27 10:19:12;;;;;;;2.95;1.23;;;;;;;;;;5040384;28;21075;-81
2022/09/27 10:21:41;;;;;;;2.70;1.48;;;;;;;10.25;100.00;67906.69;5043353;28;20079;-79
2022/09/27 10:24:15;;;;;;;5.53;1.63;;;;;;;10.32;100.00;67915.19;5041448;28;20090;-79
2022/09/27 10:26:44;;;;;;;3.25;1.35;;;;;;;10.35;100.00;67923.94;5043062;28;20704;-79
2022/09/27 10:29:18;;;;;;;6.15;1.50;;;;;;;10.44;100.00;67927.69;5043593;28;20052;-80
2022/09/27 10:31:47;;;;;;;3.65;1.30;;;;;;;;;;5044609;28;20045;-81
2022/09/27 10:34:21;;;;;;;2.97;1.60;;;;;;;10.50;100.00;67935.06;5042454;28;20528;-81
2022/09/27 10:37:00;;;;;;;4.07;1.35;;;;;;;;;;5043430;28;20047;-81
2022/09/27 10:39:27;;;;;;;3.88;1.55;;;;;;;;;;5042739;28;20053;-82
2022/09/27 10:41:52;;;;;;;3.03;1.45;;;;;;;10.32;100.00;67915.19;5042674;28;20085;-79
2022/09/27 10:44:24;;;;;;;3.88;1.70;;;;;;;10.27;100.00;67908.97;5042122;28;20064;-79
2022/09/27 10:46:52;;;;;;;4.70;1.98;;;;;;;;;;5058513;28;20071;-82
2022/09/27 10:49:17;;;;;;;3.40;2.00;;;;;;;;;;5043909;28;20053;-82
2022/09/27 10:51:44;;;;;;;4.30;2.20;;;;;;;10.42;100.00;67931.31;5044669;28;20114;-80
2022/09/27 10:54:19;;;;;;;2.63;1.88;;;;;;;10.37;100.00;67917.66;5042932;28;20130;-81
2022/09/27 10:56:54;;;;;;;6.00;2.20;;;;;;;10.36;100.00;67919.75;5043723;28;20483;-81
2022/09/27 10:59:20;;;;;;;3.92;2.20;;;;;;;10.53;100.00;67938.47;5042257;28;20040;-82
2022/09/27 11:01:49;;;;;;;3.85;2.20;;;;;;;10.48;100.00;67932.22;5043865;28;20062;-83
2022/09/27 11:04:20;;;;;;;2.90;2.05;;;;;;;10.43;100.00;67921.22;5044873;28;20092;-81
2022/09/27 11:06:45;;;;;;;5.55;2.50;;;;;;;10.41;100.00;67924.84;5044316;28;20047;-80
2022/09/27 11:09:25;;;;;;;5.47;2.80;;;;;;;10.47;100.00;67931.09;5042871;28;20045;-81
2022/09/27 11:12:12;;;;;;;5.90;3.05;;;;;;;10.45;100.00;67934.72;5044729;28;20057;-79
2022/09/27 11:14:37;;;;;;;3.28;2.35;;;;;;;;;;5057944;28;20583;-80
2022/09/27 11:17:20;;;;;;;4.95;2.22;;;;;;;10.37;100.00;67920.31;5044538;28;20045;-81
2022/09/27 11:19:55;;;;;;;3.92;2.10;;;;;;;;;;5042961;28;20385;-80
2022/09/27 11:22:36;;;;;;;4.30;2.50;;;;;;;10.25;100.00;67907.25;5041727;28;20045;-77
2022/09/27 11:25:07;;;;;;;5.35;3.15;;;;;;;10.10;100.00;67896.13;5043200;28;20053;-83
2022/09/27 11:27:56;;;;;;;6.07;3.72;;;;;;;10.21;100.00;67902.13;5045297;28;20033;-82
2022/09/27 11:30:23;;;;;;;5.43;3.05;;;;;;;10.12;100.00;67893.06;5040953;28;20041;-82
2022/09/27 11:33:26;;;;;;;4.25;2.88;;;;;;;10.14;100.00;67895.34;5042187;28;20045;-79
2022/09/27 11:36:10;;;;;;;4.15;3.17;;;;;;;;;;5043754;28;20096;-81
2022/09/27 11:38:45;;;;;;;4.25;3.50;;;;;;;10.38;100.00;67922.00;5044752;28;20045;-82
2022/09/27 11:41:33;;;;;;;5.25;3.25;;;;;;;10.38;100.00;67921.44;5046371;28;20052;-77
2022/09/27 11:44:18;;;;;;;5.38;3.20;;;;;;;;;;5018186;28;20048;-78
2022/09/27 11:47:08;;;;;;;5.35;2.92;;;;;;;10.34;100.00;67916.91;5046988;28;20087;-82
2022/09/27 11:49:46;;;;;;;8.52;3.05;;;;;;;10.21;100.00;67907.47;5037734;28;20037;-81
2022/09/27 11:52:20;;;;;;;5.95;3.63;;;;;;;;;;5046979;28;20049;-81
2022/09/27 11:55:15;;;;;;;2.42;0.88;;;;;;;9.77;100.00;67853.38;5051699;28;20272;-78
2022/09/27 11:57:59;;;;;;;2.63;0.77;;;;;;;;;;5048350;28;20478;-79
2022/09/27 12:00:33;;;;;;;5.70;1.90;;;;;;;;;;5041970;28;20045;-80
2022/09/27 12:03:10;;;;;;;4.03;2.47;;;;;;;;;;5044777;28;20041;-80
2022/09/27 12:05:44;;;;;;;3.58;2.38;;;;;;;;;;5046249;28;20041;-79
2022/09/27 12:08:43;;;;;;;4.40;2.70;;;;;;;9.32;100.00;67804.06;5040107;28;20080;-78
2022/09/27 12:11:35;;;;;;;6.75;3.90;;;;;;;9.27;100.00;67798.38;5058448;28;20072;-80
2022/09/27 12:14:07;;;;;;;5.13;3.03;;;;;;;9.30;100.00;67806.53;5040591;28;20068;-78
2022/09/27 12:16:34;;;;;;;5.53;2.85;;;;;;;9.41;100.00;67813.69;5041150;28;20039;-82
2022/09/27 12:19:02;;;;;;;5.03;1.90;;;;;;;9.40;100.00;67812.56;5040041;28;20040;-79
2022/09/27 12:21:31;;;;;;;4.93;1.88;;;;;;;9.51;100.00;67824.47;5041180;28;20071;-81
2022/09/27 12:23:56;;;;;;;6.68;2.15;;;;;;;;;;5038715;28;20055;-80
2022/09/27 12:26:41;;;;;;;6.45;2.55;;;;;;;;;;5041423;28;20040;-81
2022/09/27 12:29:25;;;;;;;6.80;2.00;;;;;;;9.80;100.00;67854.13;5036476;28;20595;-79
2022/09/27 12:31:56;;;;;;;3.75;1.90;;;;;;;9.99;100.00;67878.31;5043977;28;20051;-79
2022/09/27 12:35:03;;;;;;;4.38;1.70;;;;;;;9.93;100.00;67876.84;5044385;28;20056;-80
2022/09/27 12:37:52;;;;;;;7.28;2.10;;;;;;;10.08;100.00;67887.97;5007425;28;20041;-78
2022/09/27 12:40:23;;;;;;;3.10;1.60;;;;;;;10.10;100.00;67890.81;5038689;28;20067;-78
2022/09/27 12:43:16;;;;;;;3.85;1.17;;;;;;;10.17;100.00;67895.50;5041685;28;20037;-79
2022/09/27 12:46:30;;;;;;;4.00;1.90;;;;;;;10.33;100.00;67916.34;5043278;28;20029;-80
2022/09/27 12:49:05;;;;;;;5.45;1.05;;;;;;;10.28;100.00;67905.34;5010514;28;20040;-79
2022/09/27 12:51:38;;;;;;;8.80;2.45;;;;;;;10.34;100.00;67914.25;5033624;28;20049;-80